createdAt,value
2022-09-07T00:01:08.452Z,24.20
2022-09-07T00:03:37.220Z,24.30
2022-09-07T00:06:10.072Z,24.20
2022-09-07T00:08:39.099Z,24.30
2022-09-07T00:11:09.395Z,24.10
2022-09-07T00:13:39.973Z,24.20
2022-09-07T00:16:10.066Z,24.30
2022-09-07T00:18:41.316Z,24.40
2022-09-07T00:21:15.593Z,24.40
2022-09-07T00:23:43.853Z,24.50
2022-09-07T00:26:13.732Z,24.60
2022-09-07T00:28:42.927Z,24.60
2022-09-07T00:31:13.220Z,24.70
2022-09-07T00:33:42.212Z,24.80
2022-09-07T00:36:10.837Z,24.80
2022-09-07T00:38:40.459Z,24.80
2022-09-07T00:41:09.094Z,24.80
2022-09-07T00:43:38.947Z,24.80
2022-09-07T00:46:08.883Z,24.80
2022-09-07T00:48:41.360Z,24.80
2022-09-07T00:51:14.221Z,24.70
2022-09-07T00:53:47.992Z,24.70
2022-09-07T00:56:16.652Z,24.70
2022-09-07T00:58:45.327Z,24.60
2022-09-07T01:01:14.077Z,24.60
2022-09-07T01:03:47.857Z,24.60
2022-09-07T01:06:18.654Z,24.50
2022-09-07T01:08:51.018Z,24.50
2022-09-07T01:11:20.776Z,24.40
2022-09-07T01:13:51.136Z,24.40
2022-09-07T01:16:33.140Z,24.30
2022-09-07T01:19:15.096Z,24.30
2022-09-07T01:21:58.241Z,24.30
2022-09-07T01:24:40.550Z,24.20
2022-09-07T01:27:35.739Z,24.20
2022-09-07T01:30:07.878Z,24.10
2022-09-07T01:32:57.050Z,24.00
2022-09-07T01:35:38.360Z,23.90
2022-09-07T01:38:16.087Z,24.00
2022-09-07T01:40:53.964Z,24.10
2022-09-07T01:43:33.396Z,24.10
2022-09-07T01:46:06.974Z,24.10
2022-09-07T01:48:39.156Z,24.20
2022-09-07T01:51:07.368Z,24.20
2022-09-07T01:53:40.569Z,24.20
2022-09-07T01:56:13.633Z,24.20
2022-09-07T01:58:46.688Z,24.20
2022-09-07T02:01:22.749Z,24.20
2022-09-07T02:03:54.792Z,24.20
2022-09-07T02:06:29.456Z,24.20
2022-09-07T02:09:03.145Z,24.10
2022-09-07T02:11:37.007Z,24.00
2022-09-07T02:14:10.717Z,24.00
2022-09-07T02:16:47.229Z,24.10
2022-09-07T02:19:19.237Z,24.20
2022-09-07T02:21:52.657Z,24.30
2022-09-07T02:24:26.797Z,24.40
2022-09-07T02:26:57.007Z,24.40
2022-09-07T02:29:28.064Z,24.40
2022-09-07T02:32:00.445Z,24.30
2022-09-07T02:34:28.737Z,24.30
2022-09-07T02:36:58.861Z,24.30
2022-09-07T02:39:27.155Z,24.40
2022-09-07T02:41:55.412Z,24.40
2022-09-07T02:44:27.136Z,24.40
2022-09-07T02:47:14.157Z,24.50
2022-09-07T02:50:22.811Z,24.50
2022-09-07T02:53:00.798Z,24.40
2022-09-07T02:55:41.432Z,24.40
2022-09-07T02:58:25.410Z,24.50
2022-09-07T03:01:04.919Z,24.50
2022-09-07T03:03:43.499Z,24.50
2022-09-07T03:06:19.223Z,24.50
2022-09-07T03:08:49.956Z,24.50
2022-09-07T03:11:18.819Z,24.50
2022-09-07T03:13:47.018Z,24.50
2022-09-07T03:16:16.359Z,24.50
2022-09-07T03:18:45.997Z,24.40
2022-09-07T03:21:14.198Z,24.40
2022-09-07T03:23:42.363Z,24.50
2022-09-07T03:26:24.442Z,24.40
2022-09-07T03:28:52.661Z,24.40
2022-09-07T03:31:21.086Z,24.30
2022-09-07T03:33:50.930Z,24.30
2022-09-07T03:36:19.074Z,24.20
2022-09-07T03:38:47.281Z,24.20
2022-09-07T03:41:15.456Z,24.20
2022-09-07T03:43:43.612Z,24.20
2022-09-07T03:46:11.882Z,24.10
2022-09-07T03:48:40.223Z,24.10
2022-09-07T03:51:11.784Z,24.10
2022-09-07T03:53:42.445Z,24.10
2022-09-07T03:56:12.223Z,24.10
2022-09-07T03:58:40.952Z,24.10
2022-09-07T04:01:11.672Z,24.10
2022-09-07T04:03:41.060Z,24.10
2022-09-07T04:06:10.966Z,24.00
2022-09-07T04:08:40.446Z,24.00
2022-09-07T04:11:11.812Z,24.00
2022-09-07T04:13:40.078Z,24.00
2022-09-07T04:16:12.856Z,24.00
2022-09-07T04:18:41.119Z,24.00
2022-09-07T04:21:11.523Z,24.00
2022-09-07T04:23:40.499Z,24.00
2022-09-07T04:26:14.240Z,24.40
2022-09-07T04:28:42.516Z,23.80
2022-09-07T04:31:11.093Z,23.80
2022-09-07T04:33:39.538Z,23.70
2022-09-07T04:36:08.345Z,23.70
2022-09-07T04:38:39.981Z,23.70
2022-09-07T04:41:10.471Z,23.70
2022-09-07T04:43:40.300Z,23.70
2022-09-07T04:46:12.147Z,23.70
2022-09-07T04:48:40.407Z,23.70
2022-09-07T04:51:10.565Z,23.70
2022-09-07T04:53:40.217Z,23.50
2022-09-07T04:56:08.554Z,23.40
2022-09-07T04:58:37.190Z,23.30
2022-09-07T05:01:07.020Z,23.10
2022-09-07T05:03:38.077Z,22.80
2022-09-07T05:06:08.038Z,22.70
2022-09-07T05:08:41.511Z,22.60
2022-09-07T05:11:11.137Z,22.10
2022-09-07T05:13:39.699Z,23.00
2022-09-07T05:16:10.750Z,23.00
2022-09-07T05:18:39.229Z,22.90
2022-09-07T05:21:12.257Z,22.90
2022-09-07T05:23:42.078Z,22.90
2022-09-07T05:26:12.057Z,23.00
2022-09-07T05:28:40.406Z,23.00
2022-09-07T05:31:18.081Z,23.10
2022-09-07T05:36:37.330Z,22.90
2022-09-07T05:39:07.932Z,23.00
2022-09-07T05:41:36.161Z,22.80
2022-09-07T05:46:54.014Z,22.80
2022-09-07T05:49:22.206Z,22.80
2022-09-07T05:51:50.387Z,22.80
2022-09-07T05:54:19.943Z,22.80
2022-09-07T05:56:48.372Z,22.80
2022-09-07T05:59:16.548Z,22.80
2022-09-07T06:01:44.755Z,22.80
2022-09-07T06:04:12.961Z,22.90
2022-09-07T06:06:41.128Z,22.90
2022-09-07T06:09:11.388Z,23.00
2022-09-07T06:11:41.022Z,23.10
2022-09-07T06:14:09.203Z,23.20
2022-09-07T06:16:37.497Z,23.30
2022-09-07T06:19:07.353Z,23.30
2022-09-07T06:21:37.408Z,23.30
2022-09-07T06:24:05.983Z,23.40
2022-09-07T06:26:35.408Z,23.50
2022-09-07T06:29:05.117Z,23.60
2022-09-07T06:31:33.905Z,23.70
2022-09-07T06:34:02.331Z,23.70
2022-09-07T06:36:31.153Z,23.90
2022-09-07T06:39:02.335Z,24.00
2022-09-07T06:44:21.887Z,24.20
2022-09-07T06:47:05.436Z,24.20
2022-09-07T06:49:33.611Z,24.20
2022-09-07T06:52:01.788Z,24.10
2022-09-07T06:57:18.183Z,24.10
2022-09-07T06:59:47.743Z,24.10
2022-09-07T07:02:15.954Z,24.00
2022-09-07T07:04:44.193Z,24.00
2022-09-07T07:07:13.700Z,24.10
2022-09-07T07:09:42.111Z,24.20
2022-09-07T07:12:10.823Z,24.20
2022-09-07T07:14:44.102Z,24.30
2022-09-07T07:17:14.579Z,24.30
2022-09-07T07:19:42.805Z,24.30
2022-09-07T07:22:29.624Z,24.20
2022-09-07T07:24:59.297Z,24.10
2022-09-07T07:27:27.538Z,24.20
2022-09-07T07:29:55.785Z,24.30
2022-09-07T07:32:25.514Z,24.40
2022-09-07T07:34:53.776Z,24.30
2022-09-07T07:37:27.824Z,24.40
2022-09-07T07:42:45.218Z,24.60
2022-09-07T07:48:03.543Z,24.70
2022-09-07T07:50:32.762Z,24.80
2022-09-07T07:55:50.268Z,25.00
2022-09-07T07:58:18.663Z,25.10
2022-09-07T08:00:55.914Z,25.20
2022-09-07T08:03:27.075Z,25.20
2022-09-07T08:05:55.702Z,25.30
2022-09-07T08:08:25.088Z,25.30
2022-09-07T08:10:53.600Z,25.40
2022-09-07T08:13:22.534Z,25.50
2022-09-07T08:15:50.878Z,25.50
2022-09-07T08:18:19.409Z,25.60
2022-09-07T08:20:49.397Z,25.60
2022-09-07T08:23:20.407Z,25.70
2022-09-07T08:25:52.777Z,25.70
2022-09-07T08:28:21.945Z,25.70
2022-09-07T08:30:50.220Z,25.80
2022-09-07T08:33:18.844Z,25.90
2022-09-07T08:35:59.876Z,25.90
2022-09-07T08:38:29.945Z,25.90
2022-09-07T08:40:58.878Z,25.80
2022-09-07T08:43:39.568Z,25.90
2022-09-07T08:46:18.917Z,25.90
2022-09-07T08:48:48.001Z,25.90
2022-09-07T08:51:24.400Z,25.90
2022-09-07T08:53:53.450Z,26.00
2022-09-07T08:56:33.481Z,26.00
2022-09-07T08:59:07.613Z,26.10
2022-09-07T09:01:41.235Z,26.10
2022-09-07T09:04:18.641Z,26.20
2022-09-07T09:07:03.440Z,26.30
2022-09-07T09:09:43.515Z,26.20
2022-09-07T09:12:22.970Z,26.20
2022-09-07T09:15:04.364Z,26.20
2022-09-07T09:17:39.177Z,26.30
2022-09-07T09:20:23.305Z,26.40
2022-09-07T09:22:58.172Z,26.50
2022-09-07T09:25:34.645Z,26.40
2022-09-07T09:28:03.092Z,26.50
2022-09-07T09:30:31.565Z,26.60
2022-09-07T09:33:15.861Z,26.60
2022-09-07T09:35:45.823Z,26.60
2022-09-07T09:38:33.334Z,26.70
2022-09-07T09:41:10.243Z,26.70
2022-09-07T09:43:45.740Z,26.60
2022-09-07T09:46:21.761Z,26.60
2022-09-07T09:48:57.028Z,26.70
2022-09-07T09:54:24.448Z,26.80
2022-09-07T09:56:52.770Z,26.90
2022-09-07T10:05:27.601Z,27.00
2022-09-07T10:07:56.313Z,27.10
2022-09-07T10:10:27.491Z,27.10
2022-09-07T10:12:56.702Z,27.10
2022-09-07T10:15:40.090Z,27.00
2022-09-07T10:18:17.161Z,27.00
2022-09-07T10:20:45.253Z,27.10
2022-09-07T10:23:23.074Z,27.10
2022-09-07T10:25:52.547Z,27.20
2022-09-07T10:28:22.561Z,27.30
2022-09-07T10:31:03.878Z,27.40
2022-09-07T10:34:25.671Z,27.40
2022-09-07T10:36:39.969Z,27.40
2022-09-07T10:39:15.180Z,27.40
2022-09-07T10:41:49.768Z,27.40
2022-09-07T10:44:32.540Z,27.30
2022-09-07T10:47:05.542Z,27.40
2022-09-07T10:50:22.002Z,27.40
2022-09-07T10:52:39.952Z,27.40
2022-09-07T10:55:14.711Z,27.30
2022-09-07T10:57:59.843Z,27.40
2022-09-07T11:00:33.926Z,27.50
2022-09-07T11:03:26.277Z,27.60
2022-09-07T11:06:14.330Z,27.50
2022-09-07T11:09:22.802Z,27.50
2022-09-07T11:12:01.334Z,27.70
2022-09-07T11:14:35.382Z,27.70
2022-09-07T11:17:07.589Z,27.70
2022-09-07T11:19:42.697Z,27.80
2022-09-07T11:22:23.805Z,27.80
2022-09-07T11:27:50.807Z,27.80
2022-09-07T11:30:24.975Z,27.90
2022-09-07T11:33:04.130Z,27.80
2022-09-07T11:35:42.002Z,27.80
2022-09-07T11:38:32.330Z,27.80
2022-09-07T11:41:14.782Z,27.80
2022-09-07T11:43:46.744Z,27.80
2022-09-07T11:46:20.639Z,27.80
2022-09-07T11:48:53.612Z,27.80
2022-09-07T11:51:25.634Z,27.80
2022-09-07T11:53:57.996Z,27.90
2022-09-07T11:56:36.292Z,27.80
2022-09-07T11:59:36.982Z,27.80
2022-09-07T12:02:58.193Z,27.80
2022-09-07T12:05:42.494Z,27.80
2022-09-07T12:08:26.473Z,27.90
2022-09-07T12:11:23.381Z,27.90
2022-09-07T12:14:07.402Z,27.90
2022-09-07T12:16:54.696Z,28.00
2022-09-07T12:19:26.086Z,28.00
2022-09-07T12:21:58.059Z,28.00
2022-09-07T12:24:42.300Z,28.10
2022-09-07T12:27:38.829Z,28.10
2022-09-07T12:30:54.272Z,28.10
2022-09-07T12:33:25.676Z,28.20
2022-09-07T12:35:58.771Z,28.20
2022-09-07T12:39:14.921Z,28.20
2022-09-07T12:41:48.259Z,28.10
2022-09-07T12:44:19.741Z,28.10
2022-09-07T12:46:57.648Z,28.00
2022-09-07T12:49:57.757Z,28.00
2022-09-07T12:52:53.852Z,28.00
2022-09-07T12:58:39.958Z,28.00
2022-09-07T13:01:20.404Z,28.00
2022-09-07T13:04:14.719Z,27.50
2022-09-07T13:07:12.449Z,28.10
2022-09-07T13:09:42.656Z,28.10
2022-09-07T13:15:36.490Z,28.20
2022-09-07T13:18:04.964Z,28.20
2022-09-07T13:20:37.777Z,28.20
2022-09-07T13:23:24.541Z,28.30
2022-09-07T13:26:00.366Z,28.30
2022-09-07T13:28:36.998Z,28.20
2022-09-07T13:31:25.671Z,28.20
2022-09-07T13:33:54.748Z,28.30
2022-09-07T13:36:41.184Z,28.30
2022-09-07T13:39:15.169Z,28.30
2022-09-07T13:41:49.276Z,28.30
2022-09-07T13:44:25.895Z,28.40
2022-09-07T13:47:09.839Z,28.40
2022-09-07T13:50:02.358Z,28.40
2022-09-07T13:52:44.865Z,28.40
2022-09-07T13:55:26.578Z,28.40
2022-09-07T13:58:09.430Z,28.40
2022-09-07T14:00:37.762Z,28.40
2022-09-07T14:03:08.363Z,28.50
2022-09-07T14:05:37.270Z,28.50
2022-09-07T14:08:05.445Z,28.50
2022-09-07T14:10:33.686Z,28.50
2022-09-07T14:13:09.209Z,28.60
2022-09-07T14:15:40.774Z,28.60
2022-09-07T14:18:13.919Z,28.60
2022-09-07T14:20:45.410Z,28.50
2022-09-07T14:23:21.732Z,28.60
2022-09-07T14:28:40.562Z,28.50
2022-09-07T14:31:13.055Z,28.50
2022-09-07T14:33:46.874Z,28.60
2022-09-07T14:36:39.504Z,28.60
2022-09-07T14:39:06.550Z,28.50
2022-09-07T14:41:38.515Z,28.60
2022-09-07T14:44:08.110Z,28.60
2022-09-07T14:46:36.931Z,28.60
2022-09-07T14:49:07.976Z,28.50
2022-09-07T14:51:37.081Z,28.50
2022-09-07T14:54:08.093Z,28.50
2022-09-07T14:56:38.403Z,28.50
2022-09-07T14:59:33.505Z,28.50
2022-09-07T15:02:36.624Z,28.50
2022-09-07T15:05:25.805Z,28.50
2022-09-07T15:07:56.222Z,28.50
2022-09-07T15:10:37.444Z,28.60
2022-09-07T15:13:22.568Z,28.50
2022-09-07T15:16:01.266Z,28.50
2022-09-07T15:18:54.582Z,28.50
2022-09-07T15:21:24.910Z,28.60
2022-09-07T15:23:54.636Z,28.50
2022-09-07T15:29:13.711Z,28.60
2022-09-07T15:31:51.926Z,28.50
2022-09-07T15:34:27.780Z,28.50
2022-09-07T15:37:00.197Z,28.50
2022-09-07T15:39:30.072Z,28.50
2022-09-07T15:42:00.579Z,28.50
2022-09-07T15:44:46.871Z,28.50
2022-09-07T15:50:05.515Z,28.50
2022-09-07T15:52:34.221Z,28.40
2022-09-07T15:55:02.351Z,28.50
2022-09-07T15:57:49.300Z,28.50
2022-09-07T16:00:19.762Z,28.50
2022-09-07T16:03:06.768Z,28.50
2022-09-07T16:05:35.955Z,28.50
2022-09-07T16:10:54.110Z,28.50
2022-09-07T16:13:24.693Z,28.50
2022-09-07T16:15:52.866Z,28.50
2022-09-07T16:18:22.641Z,28.50
2022-09-07T16:20:53.782Z,28.50
2022-09-07T16:23:21.881Z,28.50
2022-09-07T16:25:57.129Z,28.40
2022-09-07T16:28:25.338Z,28.40
2022-09-07T16:30:53.392Z,28.40
2022-09-07T16:33:27.053Z,28.40
2022-09-07T16:36:02.267Z,28.40
2022-09-07T16:38:47.491Z,28.40
2022-09-07T16:41:17.809Z,28.30
2022-09-07T16:43:46.050Z,28.30
2022-09-07T16:46:16.995Z,28.30
2022-09-07T16:48:46.660Z,28.20
2022-09-07T16:51:18.825Z,28.20
2022-09-07T16:53:47.035Z,28.10
2022-09-07T16:56:17.981Z,28.10
2022-09-07T16:58:48.058Z,28.10
2022-09-07T17:01:18.034Z,28.10
2022-09-07T17:03:49.533Z,28.10
2022-09-07T17:06:19.355Z,28.40
2022-09-07T17:08:47.926Z,28.10
2022-09-07T17:11:18.237Z,28.00
2022-09-07T17:13:47.779Z,28.00
2022-09-07T17:16:19.677Z,27.90
2022-09-07T17:21:39.512Z,27.90
2022-09-07T17:24:09.545Z,27.90
2022-09-07T17:26:37.769Z,27.90
2022-09-07T17:29:07.249Z,27.90
2022-09-07T17:34:26.786Z,27.80
2022-09-07T17:36:55.649Z,27.80
2022-09-07T17:39:23.729Z,27.70
2022-09-07T17:41:52.917Z,27.70
2022-09-07T17:44:21.432Z,27.70
2022-09-07T17:46:49.630Z,27.70
2022-09-07T17:49:18.216Z,27.70
2022-09-07T17:51:48.455Z,27.70
2022-09-07T17:54:19.331Z,27.70
2022-09-07T17:56:47.727Z,27.60
2022-09-07T18:02:04.136Z,27.50
2022-09-07T18:04:32.258Z,27.40
2022-09-07T18:07:01.714Z,27.30
2022-09-07T18:09:29.803Z,27.30
2022-09-07T18:11:57.945Z,27.20
2022-09-07T18:14:26.086Z,27.10
2022-09-07T18:16:54.205Z,27.00
2022-09-07T18:19:22.304Z,26.90
2022-09-07T18:21:51.915Z,26.80
2022-09-07T18:24:24.307Z,26.70
2022-09-07T18:26:55.360Z,26.60
2022-09-07T18:29:29.341Z,26.50
2022-09-07T18:32:00.926Z,26.50
2022-09-07T18:34:30.938Z,26.40
2022-09-07T18:37:00.239Z,26.40
2022-09-07T18:39:30.131Z,26.40
2022-09-07T18:41:58.512Z,26.40
2022-09-07T18:47:22.256Z,26.40
2022-09-07T18:49:55.747Z,26.40
2022-09-07T18:55:17.612Z,26.30
2022-09-07T18:57:46.384Z,26.20
2022-09-07T19:00:16.131Z,26.20
2022-09-07T19:02:47.549Z,26.20
2022-09-07T19:08:04.861Z,26.10
2022-09-07T19:10:37.377Z,26.00
2022-09-07T19:13:06.144Z,26.00
2022-09-07T19:15:38.082Z,26.00
2022-09-07T19:18:08.525Z,25.90
2022-09-07T19:20:39.297Z,25.90
2022-09-07T19:23:07.973Z,25.90
2022-09-07T19:25:41.331Z,25.80
2022-09-07T19:28:09.979Z,25.70
2022-09-07T19:30:38.993Z,25.80
2022-09-07T19:33:09.996Z,25.70
2022-09-07T19:35:38.172Z,25.70
2022-09-07T19:38:06.344Z,25.60
2022-09-07T19:40:35.003Z,25.60
2022-09-07T19:43:04.801Z,25.60
2022-09-07T19:45:33.641Z,25.50
2022-09-07T19:48:02.147Z,25.50
2022-09-07T19:50:32.835Z,25.50
2022-09-07T19:53:01.452Z,25.40
2022-09-07T19:55:29.735Z,25.40
2022-09-07T19:57:57.948Z,25.40
2022-09-07T20:00:29.191Z,25.40
2022-09-07T20:02:57.400Z,25.30
2022-09-07T20:05:29.511Z,25.30
2022-09-07T20:07:58.213Z,25.30
2022-09-07T20:10:26.395Z,25.30
2022-09-07T20:12:55.352Z,25.20
2022-09-07T20:15:23.631Z,25.20
2022-09-07T20:17:53.946Z,25.20
2022-09-07T20:20:22.788Z,25.20
2022-09-07T20:22:51.715Z,25.20
2022-09-07T20:25:19.865Z,25.10
2022-09-07T20:27:48.062Z,25.10
2022-09-07T20:30:17.808Z,25.10
2022-09-07T20:32:45.916Z,25.10
2022-09-07T20:35:15.685Z,25.10
2022-09-07T20:37:46.261Z,25.00
2022-09-07T20:40:14.479Z,24.90
2022-09-07T20:42:51.908Z,24.80
2022-09-07T20:45:20.323Z,24.80
2022-09-07T20:47:48.457Z,24.80
2022-09-07T20:50:18.740Z,24.90
2022-09-07T20:52:46.861Z,24.80
2022-09-07T20:55:16.057Z,24.70
2022-09-07T20:57:44.248Z,24.70
2022-09-07T21:00:12.884Z,24.70
2022-09-07T21:02:41.438Z,24.70
2022-09-07T21:05:10.824Z,24.70
2022-09-07T21:07:40.915Z,24.80
2022-09-07T21:10:10.041Z,24.80
2022-09-07T21:12:38.284Z,24.70
2022-09-07T21:15:07.559Z,24.60
2022-09-07T21:17:36.029Z,24.50
2022-09-07T21:20:04.890Z,24.60
2022-09-07T21:22:34.400Z,24.50
2022-09-07T21:25:04.682Z,24.60
2022-09-07T21:27:38.837Z,24.60
2022-09-07T21:30:08.369Z,24.60
2022-09-07T21:32:36.922Z,24.70
2022-09-07T21:35:05.825Z,24.60
2022-09-07T21:37:33.996Z,24.50
2022-09-07T21:40:03.411Z,24.50
2022-09-07T21:42:32.955Z,24.30
2022-09-07T21:45:01.092Z,24.40
2022-09-07T21:47:29.186Z,24.40
2022-09-07T21:49:57.211Z,24.50
2022-09-07T21:52:25.269Z,24.60
2022-09-07T21:54:53.307Z,24.60
2022-09-07T21:57:21.986Z,24.60
2022-09-07T21:59:51.457Z,24.70
2022-09-07T22:02:19.576Z,24.70
2022-09-07T22:04:47.651Z,24.70
2022-09-07T22:07:15.731Z,24.70
2022-09-07T22:09:43.873Z,24.70
2022-09-07T22:12:11.899Z,24.70
2022-09-07T22:14:39.925Z,24.70
2022-09-07T22:17:09.331Z,24.60
2022-09-07T22:19:37.972Z,24.60
2022-09-07T22:22:06.156Z,24.50
2022-09-07T22:24:34.279Z,24.40
2022-09-07T22:27:02.306Z,24.30
2022-09-07T22:29:30.337Z,24.40
2022-09-07T22:31:58.411Z,24.40
2022-09-07T22:34:29.217Z,24.30
2022-09-07T22:36:57.753Z,24.40
2022-09-07T22:39:26.155Z,24.50
2022-09-07T22:41:54.284Z,24.60
2022-09-07T22:44:22.403Z,24.60
2022-09-07T22:46:50.520Z,24.60
2022-09-07T22:49:18.808Z,24.60
2022-09-07T22:51:48.304Z,24.50
2022-09-07T22:54:16.360Z,24.60
2022-09-07T22:56:44.444Z,24.50
2022-09-07T22:59:13.824Z,24.40
2022-09-07T23:01:42.222Z,24.40
2022-09-07T23:04:12.935Z,24.30
2022-09-07T23:06:43.174Z,24.20
2022-09-07T23:09:14.579Z,24.30
2022-09-07T23:11:43.055Z,24.30
2022-09-07T23:14:15.269Z,24.30
2022-09-07T23:16:43.846Z,24.40
2022-09-07T23:19:13.720Z,24.40
2022-09-07T23:21:42.211Z,24.40
2022-09-07T23:24:14.419Z,24.40
2022-09-07T23:26:42.814Z,24.30
2022-09-07T23:29:13.288Z,24.30
2022-09-07T23:31:41.491Z,24.10
2022-09-07T23:34:10.319Z,24.10
2022-09-07T23:36:38.622Z,24.20
2022-09-07T23:39:06.731Z,24.20
2022-09-07T23:41:36.239Z,24.30
2022-09-07T23:44:04.953Z,24.40
2022-09-07T23:46:33.111Z,24.30
2022-09-07T23:49:01.307Z,24.20
2022-09-07T23:51:29.451Z,24.30
2022-09-07T23:53:57.545Z,24.30
2022-09-07T23:56:25.622Z,24.30
2022-09-07T23:58:55.356Z,24.20
